createdAt,value
2023-04-03T00:00:19.787Z,49.63
2023-04-03T00:01:19.763Z,53.33
2023-04-03T00:02:19.843Z,47.53
2023-04-03T00:03:19.795Z,49.79
2023-04-03T00:04:19.889Z,47.70
2023-04-03T00:05:19.732Z,47.21
2023-04-03T00:06:19.728Z,47.21
2023-04-03T00:07:19.710Z,49.15
2023-04-03T00:08:19.714Z,49.47
2023-04-03T00:09:19.698Z,48.18
2023-04-03T00:10:19.706Z,49.95
2023-04-03T00:11:19.722Z,52.85
2023-04-03T00:12:19.709Z,54.30
2023-04-03T00:13:19.679Z,49.15
2023-04-03T00:14:19.666Z,51.88
2023-04-03T00:15:19.704Z,51.08
2023-04-03T00:16:19.769Z,47.21
2023-04-03T00:17:19.678Z,50.43
2023-04-03T00:18:19.664Z,50.76
2023-04-03T00:19:19.657Z,51.88
2023-04-03T00:20:19.660Z,50.27
2023-04-03T00:21:19.635Z,47.70
2023-04-03T00:22:19.616Z,49.79
2023-04-03T00:23:19.624Z,50.11
2023-04-03T00:24:19.603Z,51.24
2023-04-03T00:25:19.694Z,47.53
2023-04-03T00:26:19.602Z,47.21
2023-04-03T00:27:19.611Z,55.43
2023-04-03T00:28:19.581Z,52.69
2023-04-03T00:29:19.617Z,51.88
2023-04-03T00:30:19.589Z,50.60
2023-04-03T00:31:19.629Z,48.82
2023-04-03T00:32:19.559Z,49.95
2023-04-03T00:33:19.663Z,52.53
2023-04-03T00:34:19.565Z,49.79
2023-04-03T00:35:19.548Z,49.95
2023-04-03T00:36:19.601Z,50.76
2023-04-03T00:37:19.564Z,48.02
2023-04-03T00:38:19.583Z,50.60
2023-04-03T00:39:19.547Z,52.37
2023-04-03T00:40:19.543Z,52.69
2023-04-03T00:41:19.505Z,51.88
2023-04-03T00:42:19.498Z,50.92
2023-04-03T00:43:19.496Z,51.88
2023-04-03T00:44:19.484Z,50.11
2023-04-03T00:45:19.482Z,51.56
2023-04-03T00:46:19.516Z,49.15
2023-04-03T00:47:19.466Z,52.85
2023-04-03T00:48:19.458Z,51.56
2023-04-03T00:49:19.456Z,51.24
2023-04-03T00:50:19.446Z,53.17
2023-04-03T00:51:19.443Z,49.79
2023-04-03T00:52:19.483Z,47.53
2023-04-03T00:53:19.422Z,49.47
2023-04-03T00:54:19.418Z,50.43
2023-04-03T00:55:19.423Z,52.85
2023-04-03T00:56:19.415Z,49.15
2023-04-03T00:57:19.485Z,48.02
2023-04-03T00:58:19.398Z,51.40
2023-04-03T00:59:20.393Z,53.01
2023-04-03T01:00:19.394Z,48.18
2023-04-03T01:01:19.408Z,52.53
2023-04-03T01:02:19.390Z,54.62
2023-04-03T01:03:19.364Z,52.85
2023-04-03T01:04:19.392Z,49.47
2023-04-03T01:05:19.348Z,50.60
2023-04-03T01:06:19.351Z,52.37
2023-04-03T01:07:19.336Z,54.14
2023-04-03T01:08:19.337Z,49.95
2023-04-03T01:09:19.377Z,52.53
2023-04-03T01:10:19.325Z,51.40
2023-04-03T01:11:19.329Z,56.40
2023-04-03T01:12:19.322Z,54.46
2023-04-03T01:13:19.301Z,54.79
2023-04-03T01:14:19.289Z,53.98
2023-04-03T01:15:19.307Z,54.62
2023-04-03T01:16:19.396Z,48.50
2023-04-03T01:17:19.271Z,52.37
2023-04-03T01:18:19.262Z,53.50
2023-04-03T01:19:19.255Z,49.15
2023-04-03T01:20:19.257Z,51.72
2023-04-03T01:21:19.282Z,54.62
2023-04-03T01:22:19.233Z,57.52
2023-04-03T01:23:19.235Z,51.24
2023-04-03T01:24:19.233Z,48.34
2023-04-03T01:25:19.224Z,52.37
2023-04-03T01:26:19.240Z,52.21
2023-04-03T01:27:19.216Z,49.79
2023-04-03T01:28:19.207Z,47.53
2023-04-03T01:29:19.211Z,50.43
2023-04-03T01:30:19.186Z,47.53
2023-04-03T01:31:19.243Z,50.43
2023-04-03T01:32:19.186Z,53.33
2023-04-03T01:33:19.164Z,53.82
2023-04-03T01:34:19.177Z,54.46
2023-04-03T01:35:19.177Z,52.69
2023-04-03T01:36:19.169Z,53.98
2023-04-03T01:37:19.143Z,48.82
2023-04-03T01:38:19.145Z,54.14
2023-04-03T01:39:19.138Z,51.08
2023-04-03T01:40:19.130Z,53.82
2023-04-03T01:41:19.113Z,52.37
2023-04-03T01:42:19.169Z,54.30
2023-04-03T01:43:19.099Z,52.37
2023-04-03T01:44:19.140Z,55.27
2023-04-03T01:45:19.092Z,57.52
2023-04-03T01:46:19.268Z,53.82
2023-04-03T01:47:19.075Z,53.33
2023-04-03T01:48:19.074Z,48.98
2023-04-03T01:49:19.102Z,48.50
2023-04-03T01:50:19.052Z,48.02
2023-04-03T01:51:19.058Z,50.60
2023-04-03T01:52:19.063Z,55.43
2023-04-03T01:53:19.039Z,53.98
2023-04-03T01:54:19.037Z,51.24
2023-04-03T01:55:19.057Z,51.24
2023-04-03T01:56:19.030Z,50.43
2023-04-03T01:57:19.060Z,49.31
2023-04-03T01:58:19.004Z,53.66
2023-04-03T01:59:19.004Z,54.14
2023-04-03T02:00:19.005Z,48.34
2023-04-03T02:01:19.035Z,51.72
2023-04-03T02:02:18.973Z,53.33
2023-04-03T02:03:18.981Z,52.85
2023-04-03T02:04:19.018Z,53.17
2023-04-03T02:05:18.965Z,51.72
2023-04-03T02:06:18.959Z,51.40
2023-04-03T02:07:18.961Z,49.31
2023-04-03T02:08:18.951Z,50.11
2023-04-03T02:09:18.945Z,53.82
2023-04-03T02:10:18.954Z,52.53
2023-04-03T02:11:18.913Z,51.40
2023-04-03T02:12:18.892Z,50.60
2023-04-03T02:13:18.911Z,47.86
2023-04-03T02:14:18.895Z,52.37
2023-04-03T02:15:18.881Z,50.92
2023-04-03T02:16:18.945Z,48.66
2023-04-03T02:17:18.949Z,50.27
2023-04-03T02:18:18.866Z,52.21
2023-04-03T02:19:18.862Z,49.47
2023-04-03T02:20:18.930Z,51.88
2023-04-03T02:21:18.857Z,50.76
2023-04-03T02:22:18.839Z,52.69
2023-04-03T02:23:18.856Z,49.79
2023-04-03T02:24:18.822Z,51.40
2023-04-03T02:25:18.822Z,53.50
2023-04-03T02:26:18.852Z,48.66
2023-04-03T02:27:18.812Z,50.92
2023-04-03T02:28:18.801Z,48.82
2023-04-03T02:29:18.816Z,56.07
2023-04-03T02:30:18.784Z,48.98
2023-04-03T02:31:18.801Z,51.88
2023-04-03T02:32:18.894Z,50.27
2023-04-03T02:33:18.817Z,50.27
2023-04-03T02:34:18.776Z,53.98
2023-04-03T02:35:18.789Z,49.47
2023-04-03T02:36:18.815Z,49.95
2023-04-03T02:37:18.745Z,50.76
2023-04-03T02:38:18.741Z,54.79
2023-04-03T02:39:18.753Z,52.85
2023-04-03T02:40:18.713Z,49.47
2023-04-03T02:41:18.719Z,52.05
2023-04-03T02:42:18.710Z,51.24
2023-04-03T02:43:18.698Z,51.08
2023-04-03T02:44:19.711Z,53.82
2023-04-03T02:45:18.687Z,54.14
2023-04-03T02:46:18.794Z,55.11
2023-04-03T02:47:18.681Z,54.46
2023-04-03T02:48:18.665Z,52.53
2023-04-03T02:49:18.675Z,52.37
2023-04-03T02:50:18.654Z,51.56
2023-04-03T02:51:18.642Z,54.62
2023-04-03T02:52:18.702Z,56.07
2023-04-03T02:53:18.635Z,53.82
2023-04-03T02:54:18.622Z,51.72
2023-04-03T02:55:18.631Z,53.98
2023-04-03T02:56:18.648Z,53.82
2023-04-03T02:57:18.660Z,52.69
2023-04-03T02:58:18.602Z,54.14
2023-04-03T02:59:18.601Z,55.43
2023-04-03T03:00:18.585Z,53.01
2023-04-03T03:01:18.633Z,57.52
2023-04-03T03:02:18.588Z,53.66
2023-04-03T03:03:18.570Z,52.85
2023-04-03T03:04:18.556Z,55.91
2023-04-03T03:05:18.658Z,55.59
2023-04-03T03:06:18.572Z,56.40
2023-04-03T03:07:18.543Z,56.40
2023-04-03T03:08:18.537Z,53.01
2023-04-03T03:09:18.527Z,53.33
2023-04-03T03:10:18.520Z,53.82
2023-04-03T03:11:18.528Z,56.88
2023-04-03T03:12:18.504Z,57.69
2023-04-03T03:13:18.492Z,59.94
2023-04-03T03:14:18.489Z,54.62
2023-04-03T03:15:18.492Z,53.82
2023-04-03T03:16:18.512Z,55.43
2023-04-03T03:17:18.470Z,63.97
2023-04-03T03:18:18.460Z,60.75
2023-04-03T03:19:18.466Z,59.94
2023-04-03T03:20:18.451Z,54.79
2023-04-03T03:21:18.515Z,55.43
2023-04-03T03:22:18.436Z,56.40
2023-04-03T03:23:18.433Z,57.20
2023-04-03T03:24:18.430Z,56.24
2023-04-03T03:25:18.448Z,55.59
2023-04-03T03:26:18.645Z,57.20
2023-04-03T03:27:18.397Z,56.88
2023-04-03T03:28:18.393Z,57.04
2023-04-03T03:29:18.393Z,57.85
2023-04-03T03:30:18.387Z,55.91
2023-04-03T03:31:18.823Z,58.17
2023-04-03T03:32:18.482Z,58.49
2023-04-03T03:33:18.368Z,55.11
2023-04-03T03:34:18.367Z,58.49
2023-04-03T03:35:18.341Z,56.88
2023-04-03T03:36:18.405Z,56.56
2023-04-03T03:37:18.352Z,57.36
2023-04-03T03:38:18.328Z,57.04
2023-04-03T03:39:18.351Z,55.59
2023-04-03T03:40:18.307Z,55.43
2023-04-03T03:41:18.333Z,58.81
2023-04-03T03:42:18.305Z,56.88
2023-04-03T03:43:18.341Z,58.17
2023-04-03T03:44:18.318Z,57.04
2023-04-03T03:45:18.277Z,59.14
2023-04-03T03:46:18.301Z,58.33
2023-04-03T03:47:18.276Z,57.85
2023-04-03T03:48:18.264Z,57.69
2023-04-03T03:49:18.270Z,57.20
2023-04-03T03:50:18.262Z,58.81
2023-04-03T03:51:18.258Z,59.30
2023-04-03T03:52:18.249Z,56.07
2023-04-03T03:53:18.249Z,58.01
2023-04-03T03:54:18.234Z,57.85
2023-04-03T03:55:18.285Z,57.52
2023-04-03T03:56:18.226Z,57.20
2023-04-03T03:57:18.258Z,58.01
2023-04-03T03:58:18.230Z,58.33
2023-04-03T03:59:18.199Z,57.69
2023-04-03T04:00:18.199Z,73.15
2023-04-03T04:01:18.193Z,63.65
2023-04-03T04:02:18.192Z,64.94
2023-04-03T04:03:18.239Z,64.45
2023-04-03T04:04:18.305Z,65.42
2023-04-03T04:05:18.172Z,65.42
2023-04-03T04:06:18.157Z,65.42
2023-04-03T04:07:18.158Z,64.78
2023-04-03T04:08:18.144Z,66.06
2023-04-03T04:09:18.250Z,67.19
2023-04-03T04:10:18.144Z,64.45
2023-04-03T04:11:18.116Z,64.78
2023-04-03T04:12:18.120Z,65.26
2023-04-03T04:13:18.123Z,66.39
2023-04-03T04:14:18.108Z,68.00
2023-04-03T04:15:18.135Z,58.65
2023-04-03T04:16:18.120Z,59.30
2023-04-03T04:17:18.103Z,60.91
2023-04-03T04:18:18.081Z,60.59
2023-04-03T04:19:18.088Z,60.10
2023-04-03T04:20:18.060Z,58.17
2023-04-03T04:21:18.061Z,60.10
2023-04-03T04:22:19.061Z,60.10
2023-04-03T04:23:18.080Z,69.29
2023-04-03T04:24:18.024Z,67.03
2023-04-03T04:25:18.032Z,60.91
2023-04-03T04:26:18.029Z,61.55
2023-04-03T04:27:18.026Z,58.33
2023-04-03T04:28:18.014Z,57.04
2023-04-03T04:29:18.008Z,65.74
2023-04-03T04:30:18.028Z,59.78
2023-04-03T04:31:18.052Z,63.00
2023-04-03T04:32:17.993Z,64.78
2023-04-03T04:33:17.979Z,62.04
2023-04-03T04:34:18.011Z,63.33
2023-04-03T04:35:18.026Z,63.00
2023-04-03T04:36:18.034Z,61.71
2023-04-03T04:37:17.966Z,61.07
2023-04-03T04:38:17.948Z,60.59
2023-04-03T04:39:17.959Z,61.71
2023-04-03T04:40:17.946Z,61.39
2023-04-03T04:41:17.927Z,61.07
2023-04-03T04:42:18.678Z,61.87
2023-04-03T04:43:17.946Z,61.87
2023-04-03T04:44:17.908Z,63.49
2023-04-03T04:45:18.932Z,61.23
2023-04-03T04:46:17.951Z,57.69
2023-04-03T04:47:17.899Z,59.62
2023-04-03T04:48:17.885Z,61.87
2023-04-03T04:49:17.932Z,60.42
2023-04-03T04:50:17.878Z,59.30
2023-04-03T04:51:17.867Z,58.49
2023-04-03T04:52:17.898Z,58.17
2023-04-03T04:53:17.862Z,58.01
2023-04-03T04:54:17.868Z,60.10
2023-04-03T04:55:17.859Z,70.09
2023-04-03T04:56:17.877Z,57.85
2023-04-03T04:57:17.877Z,63.16
2023-04-03T04:58:17.857Z,60.91
2023-04-03T04:59:18.481Z,60.91
2023-04-03T05:00:17.837Z,63.49
2023-04-03T05:01:17.825Z,61.87
2023-04-03T05:02:17.809Z,65.10
2023-04-03T05:03:17.796Z,63.16
2023-04-03T05:04:17.809Z,58.97
2023-04-03T05:05:17.836Z,58.01
2023-04-03T05:06:17.776Z,58.49
2023-04-03T05:07:17.767Z,59.14
2023-04-03T05:08:17.787Z,58.17
2023-04-03T05:09:17.751Z,59.46
2023-04-03T05:10:17.755Z,60.10
2023-04-03T05:11:17.741Z,60.42
2023-04-03T05:12:17.780Z,62.84
2023-04-03T05:13:17.728Z,60.75
2023-04-03T05:14:17.722Z,60.59
2023-04-03T05:15:17.714Z,59.62
2023-04-03T05:16:17.759Z,59.14
2023-04-03T05:17:17.720Z,60.10
2023-04-03T05:18:17.701Z,59.62
2023-04-03T05:19:17.712Z,60.26
2023-04-03T05:20:17.686Z,61.55
2023-04-03T05:21:17.684Z,61.23
2023-04-03T05:22:17.683Z,60.42
2023-04-03T05:23:17.669Z,61.23
2023-04-03T05:24:17.657Z,60.75
2023-04-03T05:25:17.646Z,58.49
2023-04-03T05:26:17.647Z,57.85
2023-04-03T05:27:17.630Z,58.33
2023-04-03T05:28:17.654Z,58.65
2023-04-03T05:29:17.618Z,60.10
2023-04-03T05:30:17.612Z,58.33
2023-04-03T05:31:17.635Z,60.42
2023-04-03T05:32:17.607Z,58.49
2023-04-03T05:33:17.607Z,59.14
2023-04-03T05:34:17.622Z,62.52
2023-04-03T05:35:17.598Z,58.33
2023-04-03T05:36:17.666Z,57.85
2023-04-03T05:37:17.576Z,58.17
2023-04-03T05:38:17.567Z,59.62
2023-04-03T05:39:18.574Z,63.65
2023-04-03T05:40:18.730Z,62.04
2023-04-03T05:41:18.553Z,59.94
2023-04-03T05:42:17.548Z,60.10
2023-04-03T05:43:17.530Z,58.65
2023-04-03T05:44:17.532Z,59.46
2023-04-03T05:45:17.568Z,58.49
2023-04-03T05:46:17.548Z,59.78
2023-04-03T05:47:17.502Z,59.30
2023-04-03T05:48:17.510Z,60.42
2023-04-03T05:49:17.515Z,61.07
2023-04-03T05:50:17.477Z,57.85
2023-04-03T05:51:17.484Z,58.97
2023-04-03T05:52:17.481Z,58.97
2023-04-03T05:53:17.460Z,58.81
2023-04-03T05:54:17.469Z,59.46
2023-04-03T05:55:17.447Z,58.81
2023-04-03T05:56:17.449Z,58.65
2023-04-03T05:57:17.465Z,61.87
2023-04-03T05:58:17.432Z,57.04
2023-04-03T05:59:17.433Z,60.10
2023-04-03T06:00:17.423Z,61.87
2023-04-03T06:01:17.421Z,57.52
2023-04-03T06:02:17.496Z,57.52
2023-04-03T06:03:17.487Z,57.36
2023-04-03T06:04:17.560Z,58.33
2023-04-03T06:05:17.383Z,61.71
2023-04-03T06:06:17.490Z,67.19
2023-04-03T06:07:17.383Z,59.30
2023-04-03T06:08:17.374Z,58.97
2023-04-03T06:09:18.357Z,57.36
2023-04-03T06:10:17.391Z,56.88
2023-04-03T06:11:17.371Z,57.69
2023-04-03T06:12:17.341Z,61.55
2023-04-03T06:13:17.334Z,61.55
2023-04-03T06:14:17.371Z,62.52
2023-04-03T06:15:17.340Z,58.97
2023-04-03T06:16:17.319Z,58.81
2023-04-03T06:17:17.509Z,59.30
2023-04-03T06:18:17.300Z,58.81
2023-04-03T06:19:17.303Z,61.71
2023-04-03T06:20:17.290Z,58.17
2023-04-03T06:21:17.516Z,58.49
2023-04-03T06:22:17.339Z,58.01
2023-04-03T06:23:17.268Z,55.59
2023-04-03T06:24:17.269Z,57.85
2023-04-03T06:25:17.255Z,57.20
2023-04-03T06:26:17.274Z,56.56
2023-04-03T06:27:17.251Z,55.91
2023-04-03T06:28:17.232Z,57.69
2023-04-03T06:29:17.259Z,59.62
2023-04-03T06:30:17.233Z,56.88
2023-04-03T06:31:17.253Z,57.52
2023-04-03T06:32:17.216Z,58.17
2023-04-03T06:33:17.200Z,57.04
2023-04-03T06:34:17.194Z,55.91
2023-04-03T06:35:17.217Z,64.13
2023-04-03T06:36:17.174Z,63.16
2023-04-03T06:37:17.176Z,61.55
2023-04-03T06:38:18.166Z,58.49
2023-04-03T06:39:17.167Z,59.30
2023-04-03T06:40:17.153Z,59.62
2023-04-03T06:41:17.170Z,60.42
2023-04-03T06:42:17.144Z,68.80
2023-04-03T06:43:17.172Z,55.91
2023-04-03T06:44:17.118Z,57.04
2023-04-03T06:45:17.146Z,53.33
2023-04-03T06:46:17.252Z,56.40
2023-04-03T06:47:17.115Z,56.24
2023-04-03T06:48:17.115Z,65.10
2023-04-03T06:49:17.116Z,56.07
2023-04-03T06:50:17.086Z,55.91
2023-04-03T06:51:17.081Z,58.65
2023-04-03T06:52:17.075Z,54.46
2023-04-03T06:53:17.090Z,56.40
2023-04-03T06:54:17.062Z,58.33
2023-04-03T06:55:17.055Z,56.72
2023-04-03T06:56:17.041Z,61.55
2023-04-03T06:57:17.095Z,53.98
2023-04-03T06:58:17.025Z,55.59
2023-04-03T06:59:17.031Z,55.27
2023-04-03T07:00:17.010Z,56.88
2023-04-03T07:01:17.155Z,55.43
2023-04-03T07:02:17.049Z,54.79
2023-04-03T07:03:17.008Z,55.43
2023-04-03T07:04:17.054Z,55.75
2023-04-03T07:05:16.992Z,54.30
2023-04-03T07:06:16.994Z,55.11
2023-04-03T07:07:16.969Z,55.11
2023-04-03T07:08:17.045Z,55.91
2023-04-03T07:09:16.959Z,55.27
2023-04-03T07:10:16.956Z,55.27
2023-04-03T07:11:16.951Z,55.59
2023-04-03T07:12:16.942Z,54.14
2023-04-03T07:13:16.948Z,55.91
2023-04-03T07:14:16.949Z,56.40
2023-04-03T07:15:16.968Z,54.14
2023-04-03T07:16:17.974Z,54.79
2023-04-03T07:17:16.902Z,55.91
2023-04-03T07:18:16.914Z,56.40
2023-04-03T07:19:16.910Z,54.30
2023-04-03T07:20:16.881Z,53.33
2023-04-03T07:21:16.882Z,53.33
2023-04-03T07:22:16.889Z,52.21
2023-04-03T07:23:16.890Z,57.69
2023-04-03T07:24:16.999Z,53.50
2023-04-03T07:25:16.855Z,54.95
2023-04-03T07:26:16.842Z,58.17
2023-04-03T07:27:16.845Z,53.82
2023-04-03T07:28:16.830Z,56.72
2023-04-03T07:29:16.840Z,58.17
2023-04-03T07:30:16.824Z,56.56
2023-04-03T07:31:16.875Z,56.72
2023-04-03T07:32:16.817Z,55.75
2023-04-03T07:33:16.806Z,62.68
2023-04-03T07:34:16.812Z,55.27
2023-04-03T07:35:16.803Z,58.33
2023-04-03T07:36:16.834Z,56.56
2023-04-03T07:37:16.776Z,57.52
2023-04-03T07:38:16.777Z,59.78
2023-04-03T07:39:16.763Z,59.14
2023-04-03T07:40:17.062Z,57.52
2023-04-03T07:41:16.761Z,56.72
2023-04-03T07:42:16.835Z,53.98
2023-04-03T07:43:16.755Z,55.43
2023-04-03T07:44:16.737Z,57.69
2023-04-03T07:45:16.740Z,54.30
2023-04-03T07:46:16.740Z,53.82
2023-04-03T07:47:16.699Z,57.69
2023-04-03T07:48:16.699Z,57.52
2023-04-03T07:49:16.699Z,60.10
2023-04-03T07:50:16.696Z,61.71
2023-04-03T07:51:16.687Z,60.10
2023-04-03T07:52:16.676Z,61.07
2023-04-03T07:53:16.666Z,59.46
2023-04-03T07:54:16.661Z,57.04
2023-04-03T07:55:16.688Z,58.97
2023-04-03T07:56:16.646Z,52.69
2023-04-03T07:57:16.677Z,52.69
2023-04-03T07:58:16.762Z,52.85
2023-04-03T07:59:16.620Z,58.33
2023-04-03T08:00:17.636Z,54.95
2023-04-03T08:01:16.631Z,53.50
2023-04-03T08:02:16.598Z,52.21
2023-04-03T08:03:16.730Z,56.40
2023-04-03T08:04:16.755Z,53.33
2023-04-03T08:05:16.986Z,53.50
2023-04-03T08:06:18.564Z,53.66
2023-04-03T08:07:16.578Z,50.92
2023-04-03T08:08:16.920Z,52.21
2023-04-03T08:09:16.631Z,58.01
2023-04-03T08:10:16.567Z,61.23
2023-04-03T08:11:16.572Z,53.66
2023-04-03T08:12:16.546Z,53.98
2023-04-03T08:13:16.534Z,56.40
2023-04-03T08:14:16.554Z,52.85
2023-04-03T08:15:16.548Z,53.66
2023-04-03T08:16:16.514Z,61.87
2023-04-03T08:17:16.493Z,53.17
2023-04-03T08:18:16.511Z,52.85
2023-04-03T08:19:25.378Z,61.87
2023-04-03T08:20:18.475Z,53.33
2023-04-03T08:21:16.472Z,55.11
2023-04-03T08:22:16.477Z,52.05
2023-04-03T08:23:17.614Z,56.88
2023-04-03T08:24:16.458Z,55.11
2023-04-03T08:25:16.456Z,53.33
2023-04-03T08:26:16.431Z,54.62
2023-04-03T08:27:16.431Z,58.81
2023-04-03T08:28:16.426Z,51.56
2023-04-03T08:29:16.437Z,51.72
2023-04-03T08:30:16.428Z,55.27
2023-04-03T08:31:16.533Z,53.82
2023-04-03T08:32:16.425Z,61.87
2023-04-03T08:33:16.404Z,57.04
2023-04-03T08:34:16.393Z,52.69
2023-04-03T08:35:16.391Z,57.36
2023-04-03T08:36:16.432Z,55.75
2023-04-03T08:37:16.376Z,56.40
2023-04-03T08:38:17.358Z,51.24
2023-04-03T08:39:16.356Z,51.08
2023-04-03T08:40:16.341Z,49.95
2023-04-03T08:41:16.352Z,54.79
2023-04-03T08:42:16.338Z,60.59
2023-04-03T08:43:16.317Z,58.01
2023-04-03T08:44:16.321Z,51.88
2023-04-03T08:45:16.320Z,54.46
2023-04-03T08:46:16.462Z,52.21
2023-04-03T08:47:16.328Z,63.97
2023-04-03T08:48:16.339Z,56.40
2023-04-03T08:49:16.383Z,55.11
2023-04-03T08:50:16.293Z,51.88
2023-04-03T08:51:16.308Z,53.82
2023-04-03T08:52:16.290Z,51.08
2023-04-03T08:53:16.270Z,54.62
2023-04-03T08:54:16.246Z,51.40
2023-04-03T08:55:16.260Z,52.37
2023-04-03T08:56:16.239Z,67.03
2023-04-03T08:57:16.244Z,63.81
2023-04-03T08:58:16.285Z,62.04
2023-04-03T08:59:16.221Z,54.79
2023-04-03T09:00:16.216Z,56.40
2023-04-03T09:01:16.236Z,53.98
2023-04-03T09:02:16.303Z,54.30
2023-04-03T09:03:16.307Z,53.66
2023-04-03T09:04:16.270Z,52.85
2023-04-03T09:05:16.182Z,54.46
2023-04-03T09:06:16.217Z,53.50
2023-04-03T09:07:16.180Z,53.82
2023-04-03T09:08:16.172Z,52.37
2023-04-03T09:09:16.169Z,53.17
2023-04-03T09:10:16.159Z,52.69
2023-04-03T09:11:16.138Z,56.24
2023-04-03T09:12:16.137Z,54.30
2023-04-03T09:13:16.133Z,57.04
2023-04-03T09:14:16.131Z,52.85
2023-04-03T09:15:17.986Z,53.82
2023-04-03T09:16:16.152Z,53.33
2023-04-03T09:17:16.101Z,52.69
2023-04-03T09:18:16.210Z,52.69
2023-04-03T09:19:16.129Z,54.30
2023-04-03T09:20:16.748Z,63.33
2023-04-03T09:21:16.103Z,55.11
2023-04-03T09:22:16.059Z,57.04
2023-04-03T09:23:16.050Z,57.52
2023-04-03T09:24:16.047Z,57.69
2023-04-03T09:25:16.049Z,56.88
2023-04-03T09:26:16.055Z,58.33
2023-04-03T09:27:16.054Z,58.17
2023-04-03T09:28:16.026Z,55.91
2023-04-03T09:29:16.032Z,53.82
2023-04-03T09:30:16.014Z,52.05
2023-04-03T09:31:16.044Z,54.62
2023-04-03T09:32:16.006Z,59.14
2023-04-03T09:33:16.040Z,53.66
2023-04-03T09:34:16.100Z,52.21
2023-04-03T09:35:20.521Z,53.01
2023-04-03T09:36:18.048Z,55.59
2023-04-03T09:37:15.965Z,52.53
2023-04-03T09:38:15.973Z,53.01
2023-04-03T09:39:15.953Z,53.17
2023-04-03T09:40:15.951Z,52.85
2023-04-03T09:41:15.951Z,52.53
2023-04-03T09:42:15.946Z,53.17
2023-04-03T09:43:15.923Z,54.30
2023-04-03T09:44:15.942Z,53.50
2023-04-03T09:45:15.926Z,54.14
2023-04-03T09:46:15.926Z,54.95
2023-04-03T09:47:15.927Z,54.62
2023-04-03T09:48:16.704Z,55.27
2023-04-03T09:49:15.887Z,55.27
2023-04-03T09:50:15.992Z,55.59
2023-04-03T09:51:15.888Z,54.46
2023-04-03T09:52:15.883Z,52.85
2023-04-03T09:53:15.875Z,54.14
2023-04-03T09:54:15.862Z,57.52
2023-04-03T09:55:15.851Z,54.95
2023-04-03T09:56:15.854Z,54.95
2023-04-03T09:57:15.860Z,53.82
2023-04-03T09:58:15.836Z,58.49
2023-04-03T09:59:15.838Z,52.85
2023-04-03T10:00:15.813Z,54.79
2023-04-03T10:01:15.894Z,58.81
2023-04-03T10:02:15.810Z,59.30
2023-04-03T10:03:15.806Z,59.78
2023-04-03T10:04:15.837Z,60.26
2023-04-03T10:05:15.848Z,59.30
2023-04-03T10:06:15.871Z,55.91
2023-04-03T10:07:15.790Z,54.79
2023-04-03T10:08:15.786Z,52.37
2023-04-03T10:09:15.758Z,58.17
2023-04-03T10:10:15.867Z,52.85
2023-04-03T10:11:15.746Z,52.21
2023-04-03T10:12:15.759Z,54.79
2023-04-03T10:13:20.984Z,60.10
2023-04-03T10:14:17.734Z,52.85
2023-04-03T10:15:15.726Z,51.88
2023-04-03T10:16:15.762Z,54.30
2023-04-03T10:17:15.730Z,58.01
2023-04-03T10:18:24.261Z,50.27
2023-04-03T10:19:17.699Z,53.01
2023-04-03T10:20:15.696Z,53.66
2023-04-03T10:21:26.706Z,51.56
2023-04-03T10:22:17.781Z,52.37
2023-04-03T10:23:15.667Z,52.21
2023-04-03T10:24:15.689Z,54.30
2023-04-03T10:25:15.655Z,56.24
2023-04-03T10:26:15.646Z,53.17
2023-04-03T10:27:15.654Z,53.98
2023-04-03T10:28:15.656Z,57.20
2023-04-03T10:29:15.682Z,53.66
2023-04-03T10:30:15.627Z,51.88
2023-04-03T10:31:15.659Z,53.33
2023-04-03T10:32:15.618Z,49.95
2023-04-03T10:33:15.606Z,51.24
2023-04-03T10:34:15.861Z,52.37
2023-04-03T10:35:15.590Z,60.75
2023-04-03T10:36:15.583Z,61.87
2023-04-03T10:37:15.579Z,61.39
2023-04-03T10:38:16.256Z,53.50
2023-04-03T10:39:15.565Z,56.40
2023-04-03T10:40:15.743Z,56.24
2023-04-03T10:41:17.445Z,54.14
2023-04-03T10:42:17.541Z,54.79
2023-04-03T10:43:16.532Z,53.82
2023-04-03T10:44:16.536Z,53.98
2023-04-03T10:45:15.527Z,53.17
2023-04-03T10:46:15.530Z,55.27
2023-04-03T10:47:15.512Z,52.21
2023-04-03T10:48:15.532Z,53.82
2023-04-03T10:49:15.497Z,58.01
2023-04-03T10:50:15.509Z,62.84
2023-04-03T10:51:15.504Z,61.07
2023-04-03T10:52:15.534Z,56.56
2023-04-03T10:53:15.473Z,54.14
2023-04-03T10:54:15.564Z,53.50
2023-04-03T10:55:15.464Z,52.21
2023-04-03T10:56:15.449Z,53.50
2023-04-03T10:57:15.488Z,54.79
2023-04-03T10:58:15.673Z,51.72
2023-04-03T10:59:15.444Z,53.33
2023-04-03T11:00:15.432Z,53.33
2023-04-03T11:01:15.444Z,54.30
2023-04-03T11:02:15.445Z,56.88
2023-04-03T11:03:15.452Z,56.24
2023-04-03T11:04:15.413Z,54.62
2023-04-03T11:05:15.402Z,54.79
2023-04-03T11:06:15.390Z,58.01
2023-04-03T11:07:15.379Z,53.33
2023-04-03T11:08:15.413Z,54.30
2023-04-03T11:09:15.386Z,54.30
2023-04-03T11:10:15.938Z,54.95
2023-04-03T11:11:16.367Z,56.07
2023-04-03T11:12:15.358Z,54.79
2023-04-03T11:13:15.350Z,56.07
2023-04-03T11:14:15.364Z,55.43
2023-04-03T11:15:15.327Z,58.97
2023-04-03T11:16:15.411Z,60.59
2023-04-03T11:17:15.330Z,56.88
2023-04-03T11:18:15.362Z,55.91
2023-04-03T11:19:15.317Z,59.14
2023-04-03T11:20:15.310Z,56.07
2023-04-03T11:21:15.294Z,54.30
2023-04-03T11:22:15.302Z,62.36
2023-04-03T11:23:15.319Z,63.97
2023-04-03T11:24:15.301Z,53.66
2023-04-03T11:25:15.277Z,53.50
2023-04-03T11:26:15.367Z,66.55
2023-04-03T11:27:15.258Z,62.04
2023-04-03T11:28:15.254Z,55.75
2023-04-03T11:29:20.758Z,76.54
2023-04-03T11:30:17.240Z,53.82
2023-04-03T11:31:15.230Z,56.72
2023-04-03T11:32:15.236Z,58.01
2023-04-03T11:33:15.220Z,52.37
2023-04-03T11:34:15.205Z,53.50
2023-04-03T11:35:15.234Z,56.07
2023-04-03T11:36:25.715Z,55.59
2023-04-03T11:37:17.198Z,55.43
2023-04-03T11:38:15.188Z,52.85
2023-04-03T11:39:15.171Z,53.33
2023-04-03T11:40:15.178Z,55.75
2023-04-03T11:41:15.158Z,53.98
2023-04-03T11:42:15.288Z,53.01
2023-04-03T11:43:15.200Z,64.45
2023-04-03T11:44:15.148Z,60.59
2023-04-03T11:45:15.144Z,63.81
2023-04-03T11:46:15.154Z,56.40
2023-04-03T11:47:15.118Z,53.33
2023-04-03T11:48:24.562Z,53.17
2023-04-03T11:49:17.118Z,53.98
2023-04-03T11:50:15.108Z,58.65
2023-04-03T11:51:15.098Z,55.27
2023-04-03T11:52:15.104Z,53.66
2023-04-03T11:53:15.148Z,54.79
2023-04-03T11:54:15.092Z,56.24
2023-04-03T11:55:15.076Z,53.50
2023-04-03T11:56:15.067Z,53.66
2023-04-03T11:57:15.175Z,59.78
2023-04-03T11:58:15.143Z,57.20
2023-04-03T11:59:15.081Z,59.46
2023-04-03T12:00:15.031Z,61.39
2023-04-03T12:01:15.034Z,58.65
2023-04-03T12:02:15.050Z,58.01
2023-04-03T12:03:15.094Z,58.17
2023-04-03T12:04:15.073Z,53.98
2023-04-03T12:05:15.017Z,53.17
2023-04-03T12:06:15.003Z,53.17
2023-04-03T12:07:14.997Z,53.82
2023-04-03T12:08:14.969Z,52.53
2023-04-03T12:09:14.970Z,61.07
2023-04-03T12:10:21.427Z,51.72
2023-04-03T12:11:16.963Z,53.66
2023-04-03T12:12:14.945Z,52.69
2023-04-03T12:13:14.937Z,52.21
2023-04-03T12:14:15.050Z,52.53
2023-04-03T12:15:14.930Z,52.69
2023-04-03T12:16:14.927Z,72.35
2023-04-03T12:17:15.920Z,64.13
2023-04-03T12:18:14.932Z,54.30
2023-04-03T12:19:14.900Z,54.30
2023-04-03T12:20:14.885Z,52.05
2023-04-03T12:21:14.889Z,54.30
2023-04-03T12:22:14.877Z,57.69
2023-04-03T12:23:14.952Z,53.33
2023-04-03T12:24:14.871Z,56.40
2023-04-03T12:25:14.873Z,54.14
2023-04-03T12:26:14.855Z,54.79
2023-04-03T12:27:14.871Z,51.56
2023-04-03T12:28:14.840Z,51.72
2023-04-03T12:29:14.874Z,56.88
2023-04-03T12:30:14.926Z,69.93
2023-04-03T12:31:15.849Z,52.69
2023-04-03T12:32:14.820Z,51.24
2023-04-03T12:33:14.822Z,52.37
2023-04-03T12:34:14.825Z,55.91
2023-04-03T12:35:14.804Z,53.17
2023-04-03T12:36:14.836Z,54.30
2023-04-03T12:37:14.792Z,61.71
2023-04-03T12:38:14.800Z,57.04
2023-04-03T12:39:14.772Z,64.29
2023-04-03T12:40:14.812Z,55.91
2023-04-03T12:41:14.769Z,62.52
2023-04-03T12:42:14.762Z,57.04
2023-04-03T12:43:14.765Z,55.91
2023-04-03T12:44:14.773Z,58.33
2023-04-03T12:45:14.760Z,56.40
2023-04-03T12:46:14.932Z,59.46
2023-04-03T12:47:14.880Z,58.17
2023-04-03T12:48:15.127Z,63.16
2023-04-03T12:49:14.724Z,63.65
2023-04-03T12:50:14.722Z,63.00
2023-04-03T12:51:14.716Z,62.36
2023-04-03T12:52:14.698Z,68.16